| time (UTC) | temp F | wind direction | speed MPH | gust MPH | rain 1hr in | rain 24hr in | rain mn in | humidity % | barometer mb |
| 20260506175710 | 66 | 0.0 | 0.0 | 0.00 | 0.00 | 0.00 | 20 | ||
| 20260506172714 | 67 | 0.0 | 0.0 | 0.00 | 0.00 | 0.00 | 20 | ||
| 20260506165711 | 68 | 0.0 | 0.0 | 0.00 | 0.00 | 0.00 | 17 | ||
| 20260506162716 | 67 | 0.0 | 0.0 | 0.00 | 0.00 | 0.00 | 17 | ||
| 20260506155714 | 69 | 0.0 | 0.0 | 0.00 | 0.00 | 0.00 | 20 | ||
| 20260506152710 | 75 | 0.0 | 0.0 | 0.00 | 0.00 | 0.00 | 13 | ||
| 20260506145708 | 77 | 0.0 | 0.0 | 0.00 | 0.00 | 0.00 | 13 | ||
| 20260506142713 | 77 | 0.0 | 0.0 | 0.00 | 0.00 | 0.00 | 13 | ||
| 20260506135715 | 77 | 0.0 | 0.0 | 0.00 | 0.00 | 0.00 | 13 | ||
| 20260506132711 | 77 | 0.0 | 0.0 | 0.00 | 0.00 | 0.00 | 13 | ||
| 20260506125711 | 77 | 0.0 | 0.0 | 0.00 | 0.00 | 0.00 | 13 | ||
| 20260506122712 | 76 | 0.0 | 0.0 | 0.00 | 0.00 | 0.00 | 13 | ||
| 20260506115710 | 77 | 0.0 | 0.0 | 0.00 | 0.00 | 0.00 | 13 | ||
| 20260506112711 | 76 | 0.0 | 0.0 | 0.00 | 0.00 | 0.00 | 13 | ||
| 20260506105710 | 76 | 0.0 | 0.0 | 0.00 | 0.00 | 0.00 | 13 | ||
| 20260506102712 | 75 | 0.0 | 0.0 | 0.00 | 0.00 | 0.00 | 13 | ||
| 20260506095710 | 74 | 0.0 | 0.0 | 0.00 | 0.00 | 0.00 | 13 | ||
| 20260506092713 | 73 | 0.0 | 0.0 | 0.00 | 0.00 | 0.00 | 13 | ||
| 20260506085715 | 72 | 0.0 | 0.0 | 0.00 | 0.00 | 0.00 | 14 | ||
| 20260506082709 | 71 | 0.0 | 0.0 | 0.00 | 0.00 | 0.00 | 14 | ||
| 20260506072714 | 72 | 0.0 | 0.0 | 0.00 | 0.00 | 0.00 | 14 | ||
| 20260505215710 | 65 | 0.0 | 0.0 | 0.00 | 0.00 | 0.00 | 15 | ||
| 20260505212716 | 66 | 0.0 | 0.0 | 0.00 | 0.00 | 0.00 | 15 | ||
| 20260505205717 | 66 | 0.0 | 0.0 | 0.00 | 0.00 | 0.00 | 15 | ||
| 20260505195710 | 67 | 0.0 | 0.0 | 0.00 | 0.00 | 0.00 | 15 | ||
| 20260505192710 | 68 | 0.0 | 0.0 | 0.00 | 0.00 | 0.00 | 15 | ||
| 20260505185717 | 68 | 0.0 | 0.0 | 0.00 | 0.00 | 0.00 | 15 | ||
| 20260505182712 | 70 | 0.0 | 0.0 | 0.00 | 0.00 | 0.00 | 14 |